METAR Formatted Surface Weather Observation
Issued by NWS Charleston, WV

Current Version | Previous Version | Text Only | Print | Product List | Glossary On
Versions: 1
000
SAUS41 KRLX 290756
MTRCRW
METAR KCRW 290754Z 00000KT 8SM FEW002 SCT200 18/17 A3011 RMK AO2
SLP187 VLY FG T01780167 $



USA.gov is the U.S. government's official web portal to all federal, state and local government web resources and services.